createdAt,value
2019-04-16T00:00:11.879Z,5.10
2019-04-16T00:02:55.183Z,4.57
2019-04-16T00:05:27.741Z,5.57
2019-04-16T00:07:57.928Z,5.40
2019-04-16T00:10:28.295Z,5.43
2019-04-16T00:12:55.914Z,5.07
2019-04-16T00:15:21.853Z,5.60
2019-04-16T00:17:48.171Z,5.80
2019-04-16T00:20:13.874Z,5.83
2019-04-16T00:22:41.425Z,5.63
2019-04-16T00:25:07.227Z,5.13
2019-04-16T00:27:33.083Z,5.70
2019-04-16T00:29:58.652Z,5.60
2019-04-16T00:32:26.283Z,6.10
2019-04-16T00:34:51.925Z,5.00
2019-04-16T00:37:20.450Z,5.33
2019-04-16T00:39:45.020Z,5.83
2019-04-16T00:42:10.642Z,5.53
2019-04-16T00:44:36.213Z,5.60
2019-04-16T00:47:01.768Z,6.17
2019-04-16T00:49:27.335Z,5.53
2019-04-16T00:51:52.972Z,5.10
2019-04-16T00:54:18.555Z,5.20
2019-04-16T00:56:46.649Z,5.93
2019-04-16T00:59:11.944Z,4.93
2019-04-16T01:01:37.485Z,5.47
2019-04-16T01:04:03.511Z,5.57
2019-04-16T01:06:29.092Z,5.20
2019-04-16T01:08:55.307Z,5.10
2019-04-16T01:11:21.095Z,5.53
2019-04-16T01:13:46.641Z,5.17
2019-04-16T01:16:12.584Z,5.10
2019-04-16T01:18:38.844Z,5.23
2019-04-16T01:21:05.049Z,5.07
2019-04-16T01:23:32.404Z,5.50
2019-04-16T01:25:58.012Z,6.40
2019-04-16T01:28:42.258Z,5.50
2019-04-16T01:31:26.463Z,5.70
2019-04-16T01:33:59.860Z,5.73
2019-04-16T01:36:30.508Z,5.63
2019-04-16T01:39:15.245Z,5.17
2019-04-16T01:41:25.581Z,5.63
2019-04-16T01:43:51.399Z,6.47
2019-04-16T01:46:17.007Z,5.30
2019-04-16T01:48:42.575Z,5.57
2019-04-16T01:51:08.144Z,4.70
2019-04-16T01:53:33.705Z,6.23
2019-04-16T01:55:59.411Z,5.63
2019-04-16T01:58:25.253Z,5.80
2019-04-16T02:00:50.807Z,5.23
2019-04-16T02:03:17.768Z,5.70
2019-04-16T02:05:44.121Z,6.10
2019-04-16T02:08:09.823Z,5.20
2019-04-16T02:10:38.094Z,4.90
2019-04-16T02:13:02.906Z,6.30
2019-04-16T02:15:28.597Z,5.50
2019-04-16T02:17:55.408Z,6.30
2019-04-16T02:20:21.945Z,5.53
2019-04-16T02:22:47.915Z,6.17
2019-04-16T02:25:19.021Z,5.80
2019-04-16T02:27:42.075Z,6.57
2019-04-16T02:30:07.833Z,6.10
2019-04-16T02:32:33.532Z,6.50
2019-04-16T02:34:59.115Z,6.13
2019-04-16T02:37:24.667Z,4.70
2019-04-16T02:39:50.228Z,6.60
2019-04-16T02:42:15.809Z,5.60
2019-04-16T02:44:41.467Z,6.00
2019-04-16T02:47:08.041Z,5.33
2019-04-16T02:49:34.704Z,5.90
2019-04-16T02:52:02.250Z,6.03
2019-04-16T02:54:33.882Z,6.07
2019-04-16T02:57:10.816Z,5.50
2019-04-16T02:59:46.051Z,6.40
2019-04-16T03:02:22.723Z,5.80
2019-04-16T03:04:49.179Z,6.00
2019-04-16T03:07:14.715Z,5.70
2019-04-16T03:09:40.999Z,6.43
2019-04-16T03:12:07.573Z,6.30
2019-04-16T03:14:33.123Z,6.13
2019-04-16T03:17:17.135Z,6.27
2019-04-16T03:19:51.035Z,6.07
2019-04-16T03:22:15.109Z,5.40
2019-04-16T03:24:41.203Z,6.37
2019-04-16T03:27:06.787Z,5.43
2019-04-16T03:29:32.511Z,6.00
2019-04-16T03:31:59.511Z,5.10
2019-04-16T03:34:25.434Z,5.10
2019-04-16T03:36:51.189Z,6.40
2019-04-16T03:39:16.731Z,5.67
2019-04-16T03:41:42.332Z,6.57
2019-04-16T03:44:07.887Z,6.40
2019-04-16T03:46:33.505Z,5.20
2019-04-16T03:48:59.074Z,6.30
2019-04-16T03:51:24.827Z,6.20
2019-04-16T03:53:50.484Z,6.20
2019-04-16T03:56:16.051Z,6.00
2019-04-16T03:58:41.719Z,5.73
2019-04-16T04:01:07.428Z,6.13
2019-04-16T04:03:33.043Z,5.80
2019-04-16T04:05:58.679Z,6.00
2019-04-16T04:08:24.639Z,6.20
2019-04-16T04:10:50.388Z,6.07
2019-04-16T04:13:18.345Z,5.87
2019-04-16T04:15:43.587Z,5.50
2019-04-16T04:18:11.669Z,6.00
2019-04-16T04:20:36.679Z,5.33
2019-04-16T04:23:02.348Z,5.43
2019-04-16T04:25:28.011Z,6.33
2019-04-16T04:27:53.721Z,6.30
2019-04-16T04:30:21.185Z,5.90
2019-04-16T04:32:47.607Z,6.10
2019-04-16T04:35:21.139Z,6.20
2019-04-16T04:37:48.987Z,5.70
2019-04-16T04:40:16.150Z,6.40
2019-04-16T04:42:43.371Z,7.17
2019-04-16T04:45:10.175Z,5.93
2019-04-16T04:47:36.225Z,6.00
2019-04-16T04:50:03.556Z,5.87
2019-04-16T04:52:33.307Z,5.93
2019-04-16T04:54:58.902Z,6.40
2019-04-16T04:57:24.514Z,6.83
2019-04-16T04:59:50.120Z,5.20
2019-04-16T05:02:15.947Z,6.23
2019-04-16T05:04:45.208Z,6.20
2019-04-16T05:07:13.527Z,7.23
2019-04-16T05:09:39.162Z,6.63
2019-04-16T05:12:07.844Z,6.60
2019-04-16T05:14:32.281Z,6.93
2019-04-16T05:16:57.923Z,6.50
2019-04-16T05:19:23.470Z,6.90
2019-04-16T05:21:50.035Z,6.70
2019-04-16T05:24:17.677Z,6.60
2019-04-16T05:26:45.586Z,5.97
2019-04-16T05:29:16.125Z,5.80
2019-04-16T05:31:42.299Z,6.60
2019-04-16T05:34:08.164Z,6.07
2019-04-16T05:36:34.019Z,5.87
2019-04-16T05:38:59.611Z,4.80
2019-04-16T05:41:25.544Z,6.23
2019-04-16T05:43:51.682Z,5.53
2019-04-16T05:46:18.336Z,5.17
2019-04-16T05:48:44.110Z,5.70
2019-04-16T05:51:09.651Z,6.07
2019-04-16T05:53:37.334Z,5.67
2019-04-16T05:56:06.365Z,7.17
2019-04-16T05:58:31.914Z,5.53
2019-04-16T06:00:59.455Z,5.57
2019-04-16T06:03:24.979Z,5.50
2019-04-16T06:05:50.527Z,6.07
2019-04-16T06:08:16.142Z,5.93
2019-04-16T06:10:41.673Z,5.33
2019-04-16T06:13:25.787Z,5.63
2019-04-16T06:16:09.966Z,5.23
2019-04-16T06:18:43.362Z,5.50
2019-04-16T06:21:10.798Z,5.13
2019-04-16T06:23:44.435Z,5.57
2019-04-16T06:26:28.685Z,5.60
2019-04-16T06:28:59.694Z,5.40
2019-04-16T06:31:28.613Z,5.80
2019-04-16T06:33:58.962Z,6.73
2019-04-16T06:36:29.514Z,5.00
2019-04-16T06:38:59.735Z,5.90
2019-04-16T06:41:47.816Z,5.80
2019-04-16T06:44:13.427Z,5.43
2019-04-16T06:46:56.871Z,6.10
2019-04-16T06:49:34.482Z,5.73
2019-04-16T06:52:16.051Z,5.43
2019-04-16T06:54:46.844Z,5.57
2019-04-16T06:57:27.010Z,6.10
2019-04-16T07:00:11.804Z,5.50
2019-04-16T07:02:43.090Z,6.00
2019-04-16T07:05:11.307Z,5.30
2019-04-16T07:07:55.251Z,5.40
2019-04-16T07:10:28.839Z,5.73
2019-04-16T07:12:53.328Z,5.70
2019-04-16T07:15:22.383Z,5.57
2019-04-16T07:17:46.465Z,6.40
2019-04-16T07:20:13.478Z,7.23
2019-04-16T07:22:40.129Z,5.83
2019-04-16T07:25:06.478Z,5.63
2019-04-16T07:27:38.555Z,6.03
2019-04-16T07:30:08.886Z,5.60
2019-04-16T07:32:39.216Z,6.77
2019-04-16T07:35:07.105Z,6.30
2019-04-16T07:37:43.765Z,5.80
2019-04-16T07:40:12.326Z,5.77
2019-04-16T07:42:51.699Z,6.20
2019-04-16T07:45:17.923Z,6.17
2019-04-16T07:48:05.434Z,5.93
2019-04-16T07:50:40.332Z,5.70
2019-04-16T07:53:24.630Z,6.00
2019-04-16T07:55:52.131Z,6.53
2019-04-16T07:58:17.715Z,5.87
2019-04-16T08:00:43.616Z,5.50
2019-04-16T08:03:09.691Z,6.53
2019-04-16T08:05:37.692Z,6.30
2019-04-16T08:08:03.013Z,5.90
2019-04-16T08:10:28.611Z,6.10
2019-04-16T08:12:57.230Z,6.10
2019-04-16T08:15:23.665Z,6.20
2019-04-16T08:17:49.256Z,6.30
2019-04-16T08:20:19.993Z,6.63
2019-04-16T08:22:47.337Z,5.70
2019-04-16T08:25:10.203Z,6.40
2019-04-16T08:27:35.849Z,5.87
2019-04-16T08:30:03.381Z,6.17
2019-04-16T08:32:29.097Z,6.43
2019-04-16T08:34:54.753Z,6.83
2019-04-16T08:37:20.308Z,6.57
2019-04-16T08:39:45.865Z,7.03
2019-04-16T08:42:11.691Z,6.80
2019-04-16T08:44:37.446Z,7.73
2019-04-16T08:47:03.391Z,6.77
2019-04-16T08:49:28.999Z,6.20
2019-04-16T08:51:54.837Z,7.27
2019-04-16T08:54:20.720Z,5.97
2019-04-16T08:56:46.270Z,7.17
2019-04-16T08:59:11.863Z,6.77
2019-04-16T09:01:37.604Z,7.37
2019-04-16T09:04:03.379Z,6.70
2019-04-16T09:06:29.156Z,8.17
2019-04-16T09:09:12.418Z,6.93
2019-04-16T09:11:36.169Z,6.90
2019-04-16T09:14:02.816Z,8.10
2019-04-16T09:16:28.477Z,8.00
2019-04-16T09:18:56.252Z,7.90
2019-04-16T09:21:21.934Z,7.80
2019-04-16T09:24:08.782Z,7.50
2019-04-16T09:26:35.718Z,7.43
2019-04-16T09:29:08.432Z,8.10
2019-04-16T09:31:35.453Z,7.77
2019-04-16T09:34:08.782Z,7.70
2019-04-16T09:36:36.339Z,7.90
2019-04-16T09:39:22.385Z,8.10
2019-04-16T09:41:48.555Z,8.27
2019-04-16T09:44:14.081Z,8.10
2019-04-16T09:46:50.929Z,7.00
2019-04-16T09:49:07.155Z,8.77
2019-04-16T09:51:34.694Z,8.73
2019-04-16T09:54:00.812Z,8.40
2019-04-16T09:56:28.997Z,8.80
2019-04-16T09:58:55.678Z,7.40
2019-04-16T10:01:23.299Z,7.80
2019-04-16T10:03:53.541Z,8.40
2019-04-16T10:06:19.204Z,7.70
2019-04-16T10:08:45.612Z,7.87
2019-04-16T10:11:11.484Z,8.50
2019-04-16T10:13:37.412Z,7.60
2019-04-16T10:16:03.067Z,8.10
2019-04-16T10:18:28.583Z,8.63
2019-04-16T10:20:54.152Z,8.53
2019-04-16T10:23:39.892Z,8.30
2019-04-16T10:26:05.470Z,8.20
2019-04-16T10:28:38.600Z,8.60
2019-04-16T10:31:04.253Z,9.50
2019-04-16T10:33:30.015Z,9.03
2019-04-16T10:35:57.531Z,8.10
2019-04-16T10:38:30.968Z,8.00
2019-04-16T10:41:02.123Z,8.23
2019-04-16T10:43:46.332Z,9.33
2019-04-16T10:46:19.759Z,9.03
2019-04-16T10:49:05.736Z,7.63
2019-04-16T10:51:33.201Z,8.17
2019-04-16T10:54:03.438Z,8.50
2019-04-16T10:56:33.669Z,9.23
2019-04-16T10:59:17.570Z,8.43
2019-04-16T11:01:45.154Z,8.90
2019-04-16T11:04:12.601Z,8.43
2019-04-16T11:06:52.539Z,8.20
2019-04-16T11:09:18.202Z,9.80
2019-04-16T11:11:44.066Z,8.80
2019-04-16T11:14:09.685Z,7.90
2019-04-16T11:16:36.388Z,8.87
2019-04-16T11:19:02.026Z,9.07
2019-04-16T11:21:27.623Z,9.20
2019-04-16T11:23:53.195Z,10.03
2019-04-16T11:26:19.393Z,8.40
2019-04-16T11:28:46.688Z,8.20
2019-04-16T11:31:14.847Z,8.83
2019-04-16T11:33:40.783Z,8.53
2019-04-16T11:36:18.590Z,7.60
2019-04-16T11:38:33.983Z,8.40
2019-04-16T11:40:59.632Z,8.23
2019-04-16T11:43:27.323Z,7.53
2019-04-16T11:45:53.114Z,7.30
2019-04-16T11:48:18.661Z,8.00
2019-04-16T11:50:44.351Z,8.40
2019-04-16T11:53:10.149Z,7.50
2019-04-16T11:55:35.805Z,7.70
2019-04-16T11:58:01.457Z,7.00
2019-04-16T12:00:44.078Z,8.47
2019-04-16T12:03:17.787Z,7.77
2019-04-16T12:06:02.188Z,6.47
2019-04-16T12:08:30.095Z,7.13
2019-04-16T12:11:04.558Z,7.60
2019-04-16T12:13:40.972Z,7.50
2019-04-16T12:16:14.580Z,8.00
2019-04-16T12:18:43.202Z,8.97
2019-04-16T12:21:10.645Z,7.80
2019-04-16T12:23:38.492Z,7.93
2019-04-16T12:26:22.574Z,8.07
2019-04-16T12:28:53.026Z,7.97
2019-04-16T12:31:23.453Z,8.30
2019-04-16T12:34:07.797Z,7.90
2019-04-16T12:36:50.368Z,8.37
2019-04-16T12:39:19.547Z,8.20
2019-04-16T12:41:53.170Z,7.60
2019-04-16T12:44:24.480Z,7.43
2019-04-16T12:46:55.601Z,7.50
2019-04-16T12:49:39.584Z,7.70
2019-04-16T12:52:07.112Z,7.83
2019-04-16T12:54:49.730Z,6.70
2019-04-16T12:57:23.027Z,6.20
2019-04-16T12:59:54.639Z,5.77
2019-04-16T13:02:29.080Z,6.43
2019-04-16T13:04:56.550Z,6.23
2019-04-16T13:07:32.687Z,6.67
2019-04-16T13:10:00.356Z,6.60
2019-04-16T13:12:34.372Z,6.97
2019-04-16T13:15:18.245Z,6.60
2019-04-16T13:18:02.290Z,7.33
2019-04-16T13:20:33.634Z,6.93
2019-04-16T13:23:02.437Z,6.43
2019-04-16T13:25:35.711Z,8.27
2019-04-16T13:28:01.261Z,6.97
2019-04-16T13:30:26.836Z,6.70
2019-04-16T13:32:52.355Z,6.70
2019-04-16T13:35:17.938Z,7.13
2019-04-16T13:37:43.485Z,7.10
2019-04-16T13:40:14.076Z,7.40
2019-04-16T13:42:39.710Z,7.13
2019-04-16T13:45:16.650Z,7.17
2019-04-16T13:47:47.039Z,8.30
2019-04-16T13:50:14.622Z,6.57
2019-04-16T13:52:40.284Z,7.90
2019-04-16T13:55:10.648Z,7.60
2019-04-16T13:57:41.844Z,7.17
2019-04-16T14:00:12.981Z,7.37
2019-04-16T14:02:51.012Z,7.20
2019-04-16T14:05:17.152Z,7.27
2019-04-16T14:07:42.716Z,8.00
2019-04-16T14:10:08.393Z,7.10
2019-04-16T14:12:42.171Z,7.70
2019-04-16T14:15:01.592Z,7.37
2019-04-16T14:17:28.055Z,7.20
2019-04-16T14:19:53.606Z,7.77
2019-04-16T14:22:21.880Z,6.23
2019-04-16T14:24:46.859Z,6.20
2019-04-16T14:27:14.377Z,6.33
2019-04-16T14:29:40.863Z,6.33
2019-04-16T14:32:06.407Z,6.20
2019-04-16T14:34:52.104Z,5.50
2019-04-16T14:37:17.893Z,5.63
2019-04-16T14:39:54.276Z,6.23
2019-04-16T14:42:22.301Z,7.10
2019-04-16T14:44:49.473Z,5.53
2019-04-16T14:47:15.535Z,5.93
2019-04-16T14:49:41.137Z,5.63
2019-04-16T14:52:06.794Z,5.70
2019-04-16T14:54:46.307Z,6.17
2019-04-16T14:57:12.867Z,5.63
2019-04-16T14:59:52.539Z,6.03
2019-04-16T15:02:29.756Z,6.07
2019-04-16T15:05:03.435Z,6.20
2019-04-16T15:07:49.115Z,6.47
2019-04-16T15:10:19.534Z,6.97
2019-04-16T15:12:49.894Z,6.67
2019-04-16T15:15:26.448Z,6.47
2019-04-16T15:18:06.216Z,6.47
2019-04-16T15:20:42.481Z,6.70
2019-04-16T15:23:22.231Z,7.00
2019-04-16T15:26:06.156Z,6.20
2019-04-16T15:28:43.548Z,6.50
2019-04-16T15:31:10.658Z,5.87
2019-04-16T15:33:49.800Z,6.20
2019-04-16T15:36:19.530Z,7.00
2019-04-16T15:38:45.986Z,7.30
2019-04-16T15:41:17.548Z,7.03
2019-04-16T15:43:50.376Z,7.77
2019-04-16T15:46:28.465Z,7.87
2019-04-16T15:49:08.356Z,8.50
2019-04-16T15:51:38.779Z,8.20
2019-04-16T15:54:32.967Z,8.60
2019-04-16T15:57:16.952Z,8.80
2019-04-16T15:59:50.466Z,8.60
2019-04-16T16:02:29.831Z,8.40
2019-04-16T16:05:03.312Z,8.70
2019-04-16T16:07:29.444Z,9.00
2019-04-16T16:09:59.719Z,10.13
2019-04-16T16:12:26.780Z,9.00
2019-04-16T16:14:52.378Z,9.80
2019-04-16T16:17:19.473Z,10.03
2019-04-16T16:19:45.386Z,9.70
2019-04-16T16:22:12.125Z,10.37
2019-04-16T16:24:41.982Z,11.60
2019-04-16T16:27:05.771Z,10.27
2019-04-16T16:29:31.296Z,9.47
2019-04-16T16:31:56.986Z,10.20
2019-04-16T16:34:23.125Z,9.30
2019-04-16T16:36:48.685Z,9.90
2019-04-16T16:39:14.489Z,8.30
2019-04-16T16:41:40.420Z,9.80
2019-04-16T16:44:05.949Z,10.50
2019-04-16T16:46:39.313Z,10.30
2019-04-16T16:49:05.004Z,10.13
2019-04-16T16:51:30.840Z,8.70
2019-04-16T16:53:59.437Z,9.73
2019-04-16T16:56:32.855Z,10.27
2019-04-16T16:59:03.211Z,10.07
2019-04-16T17:01:33.414Z,9.67
2019-04-16T17:03:59.992Z,10.03
2019-04-16T17:06:27.422Z,10.17
2019-04-16T17:08:52.956Z,9.30
2019-04-16T17:11:18.484Z,10.50
2019-04-16T17:13:44.131Z,10.17
2019-04-16T17:16:13.243Z,9.90
2019-04-16T17:18:37.501Z,10.97
2019-04-16T17:21:03.047Z,9.07
2019-04-16T17:23:28.621Z,9.20
2019-04-16T17:25:57.754Z,10.27
2019-04-16T17:28:22.057Z,8.83
2019-04-16T17:30:47.803Z,9.57
2019-04-16T17:33:13.396Z,9.43
2019-04-16T17:35:38.944Z,9.47
2019-04-16T17:38:05.411Z,8.50
2019-04-16T17:40:35.864Z,8.30
2019-04-16T17:43:15.258Z,8.93
2019-04-16T17:45:49.200Z,9.00
2019-04-16T17:48:18.100Z,9.50
2019-04-16T17:51:02.862Z,9.23
2019-04-16T17:53:45.393Z,8.90
2019-04-16T17:56:24.979Z,7.93
2019-04-16T17:58:52.844Z,8.37
2019-04-16T18:01:37.115Z,9.00
2019-04-16T18:04:21.320Z,9.13
2019-04-16T18:07:05.708Z,8.73
2019-04-16T18:09:33.192Z,8.77
2019-04-16T18:12:00.830Z,8.53
2019-04-16T18:14:45.514Z,7.47
2019-04-16T18:17:13.011Z,8.73
2019-04-16T18:19:57.251Z,7.90
2019-04-16T18:22:27.584Z,8.90
2019-04-16T18:25:01.123Z,8.10
2019-04-16T18:27:34.498Z,8.90
2019-04-16T18:30:07.857Z,8.93
2019-04-16T18:32:40.243Z,9.87
2019-04-16T18:35:16.473Z,8.73
2019-04-16T18:37:52.318Z,9.40
2019-04-16T18:40:37.174Z,9.10
2019-04-16T18:43:13.619Z,9.43
2019-04-16T18:45:44.104Z,9.50
2019-04-16T18:48:17.809Z,8.63
2019-04-16T18:50:44.370Z,9.33
2019-04-16T18:53:10.795Z,8.47
2019-04-16T18:55:36.637Z,9.40
2019-04-16T18:58:02.184Z,8.80
2019-04-16T19:00:36.603Z,9.90
2019-04-16T19:03:02.569Z,9.47
2019-04-16T19:05:28.397Z,9.67
2019-04-16T19:07:55.855Z,8.93
2019-04-16T19:10:22.547Z,9.53
2019-04-16T19:12:48.094Z,8.63
2019-04-16T19:15:13.720Z,9.37
2019-04-16T19:17:40.460Z,9.93
2019-04-16T19:20:07.257Z,10.10
2019-04-16T19:22:33.861Z,9.60
2019-04-16T19:24:59.483Z,8.70
2019-04-16T19:27:30.455Z,9.37
2019-04-16T19:29:55.389Z,8.53
2019-04-16T19:32:21.195Z,10.60
2019-04-16T19:34:46.766Z,9.23
2019-04-16T19:37:14.598Z,8.67
2019-04-16T19:39:40.207Z,9.53
2019-04-16T19:42:05.795Z,8.77
2019-04-16T19:44:33.516Z,9.40
2019-04-16T19:46:58.760Z,8.53
2019-04-16T19:49:24.312Z,9.57
2019-04-16T19:51:50.112Z,8.43
2019-04-16T19:54:15.679Z,9.90
2019-04-16T19:56:41.497Z,9.30
2019-04-16T19:59:07.056Z,9.20
2019-04-16T20:01:32.598Z,8.33
2019-04-16T20:03:58.139Z,8.67
2019-04-16T20:06:26.186Z,8.47
2019-04-16T20:08:51.197Z,9.07
2019-04-16T20:11:20.375Z,8.67
2019-04-16T20:13:44.239Z,8.00
2019-04-16T20:16:09.794Z,9.30
2019-04-16T20:18:49.955Z,8.97
2019-04-16T20:21:02.791Z,9.40
2019-04-16T20:23:29.049Z,8.77
2019-04-16T20:25:58.693Z,8.30
2019-04-16T20:28:22.495Z,9.83
2019-04-16T20:30:48.028Z,8.10
2019-04-16T20:33:13.672Z,9.20
2019-04-16T20:35:40.265Z,9.33
2019-04-16T20:38:05.946Z,10.30
2019-04-16T20:40:31.547Z,10.30
2019-04-16T20:42:57.424Z,8.33
2019-04-16T20:45:23.051Z,8.93
2019-04-16T20:47:48.583Z,9.70
2019-04-16T20:50:20.510Z,7.90
2019-04-16T20:52:42.678Z,8.73
2019-04-16T20:55:09.692Z,10.43
2019-04-16T20:57:39.241Z,7.67
2019-04-16T21:00:10.255Z,7.70
2019-04-16T21:02:35.542Z,7.87
2019-04-16T21:05:02.696Z,6.70
2019-04-16T21:07:29.603Z,7.00
2019-04-16T21:09:55.130Z,7.60
2019-04-16T21:12:20.655Z,6.70
2019-04-16T21:14:46.239Z,8.43
2019-04-16T21:17:11.826Z,6.77
2019-04-16T21:19:46.529Z,6.80
2019-04-16T21:22:13.297Z,7.53
2019-04-16T21:24:39.436Z,7.17
2019-04-16T21:27:05.742Z,7.20
2019-04-16T21:29:34.701Z,7.00
2019-04-16T21:32:05.278Z,7.53
2019-04-16T21:34:32.735Z,6.83
2019-04-16T21:37:00.203Z,6.53
2019-04-16T21:39:30.326Z,6.20
2019-04-16T21:42:01.316Z,6.53
2019-04-16T21:44:23.629Z,7.20
2019-04-16T21:46:51.915Z,6.70
2019-04-16T21:49:16.627Z,7.30
2019-04-16T21:52:00.567Z,7.13
2019-04-16T21:54:26.900Z,6.07
2019-04-16T21:56:54.863Z,6.13
2019-04-16T21:59:21.355Z,7.50
2019-04-16T22:01:47.563Z,6.40
2019-04-16T22:04:15.123Z,6.50
2019-04-16T22:06:40.696Z,6.23
2019-04-16T22:09:06.415Z,6.10
2019-04-16T22:11:33.935Z,6.43
2019-04-16T22:13:59.674Z,6.80
2019-04-16T22:16:26.626Z,7.13
2019-04-16T22:18:52.969Z,7.43
2019-04-16T22:21:18.475Z,7.10
2019-04-16T22:23:44.010Z,6.53
2019-04-16T22:26:10.564Z,6.57
2019-04-16T22:28:36.685Z,7.60
2019-04-16T22:31:02.296Z,8.07
2019-04-16T22:33:27.851Z,7.27
2019-04-16T22:35:53.380Z,7.70
2019-04-16T22:38:18.930Z,8.37
2019-04-16T22:40:51.528Z,7.67
2019-04-16T22:43:25.346Z,7.50
2019-04-16T22:45:56.436Z,7.57
2019-04-16T22:48:22.042Z,8.50
2019-04-16T22:50:47.610Z,8.37
2019-04-16T22:53:16.976Z,6.90
2019-04-16T22:55:42.738Z,7.60
2019-04-16T22:58:10.299Z,7.80
2019-04-16T23:00:37.817Z,7.93
2019-04-16T23:03:04.371Z,7.87
2019-04-16T23:05:30.989Z,8.17
2019-04-16T23:07:57.447Z,8.80
2019-04-16T23:10:23.070Z,8.73
2019-04-16T23:12:49.027Z,9.03
2019-04-16T23:15:14.571Z,8.50
2019-04-16T23:17:42.919Z,8.17
2019-04-16T23:20:07.926Z,8.10
2019-04-16T23:22:33.470Z,8.10
2019-04-16T23:24:59.217Z,8.40
2019-04-16T23:27:25.741Z,8.03
2019-04-16T23:29:51.315Z,8.57
2019-04-16T23:32:16.935Z,8.60
2019-04-16T23:34:42.477Z,8.47
2019-04-16T23:37:08.002Z,8.37
2019-04-16T23:39:36.186Z,8.30
2019-04-16T23:42:00.998Z,8.37
2019-04-16T23:44:44.971Z,7.20
2019-04-16T23:47:15.317Z,8.17
2019-04-16T23:49:45.779Z,8.43
2019-04-16T23:52:22.572Z,8.80
2019-04-16T23:55:01.863Z,8.47
2019-04-16T23:57:29.427Z,8.07
